sensor_id;sensor_type;location;lat;lon;timestamp;P1;durP1;ratioP1;P2;durP2;ratioP2
31734;SDS011;18313;48.518;9.124;2024-02-14T00:02:03;15.23;;;7.35;;
31734;SDS011;18313;48.518;9.124;2024-02-14T00:04:32;10.30;;;6.55;;
31734;SDS011;18313;48.518;9.124;2024-02-14T00:06:59;10.68;;;6.03;;
31734;SDS011;18313;48.518;9.124;2024-02-14T00:09:27;15.90;;;6.47;;
31734;SDS011;18313;48.518;9.124;2024-02-14T00:11:54;11.52;;;6.72;;
31734;SDS011;18313;48.518;9.124;2024-02-14T00:14:21;12.15;;;6.85;;
31734;SDS011;18313;48.518;9.124;2024-02-14T00:16:48;14.25;;;7.50;;
31734;SDS011;18313;48.518;9.124;2024-02-14T00:19:17;13.07;;;6.80;;
31734;SDS011;18313;48.518;9.124;2024-02-14T00:21:45;13.13;;;7.35;;
31734;SDS011;18313;48.518;9.124;2024-02-14T00:24:12;12.90;;;7.00;;
31734;SDS011;18313;48.518;9.124;2024-02-14T00:26:39;14.75;;;7.07;;
31734;SDS011;18313;48.518;9.124;2024-02-14T00:29:06;14.07;;;7.30;;
31734;SDS011;18313;48.518;9.124;2024-02-14T00:31:34;12.38;;;6.82;;
31734;SDS011;18313;48.518;9.124;2024-02-14T00:34:01;13.52;;;7.32;;
31734;SDS011;18313;48.518;9.124;2024-02-14T00:36:29;12.10;;;7.28;;
31734;SDS011;18313;48.518;9.124;2024-02-14T00:38:56;12.70;;;7.55;;
31734;SDS011;18313;48.518;9.124;2024-02-14T00:41:24;15.82;;;9.52;;
31734;SDS011;18313;48.518;9.124;2024-02-14T00:43:51;17.05;;;8.50;;
31734;SDS011;18313;48.518;9.124;2024-02-14T00:46:18;12.60;;;7.38;;
31734;SDS011;18313;48.518;9.124;2024-02-14T00:48:46;16.35;;;7.75;;
31734;SDS011;18313;48.518;9.124;2024-02-14T00:51:13;15.35;;;8.10;;
31734;SDS011;18313;48.518;9.124;2024-02-14T00:53:41;15.93;;;7.78;;
31734;SDS011;18313;48.518;9.124;2024-02-14T00:56:09;14.48;;;6.75;;
31734;SDS011;18313;48.518;9.124;2024-02-14T00:58:36;14.93;;;7.93;;
31734;SDS011;18313;48.518;9.124;2024-02-14T01:01:03;16.38;;;8.45;;
31734;SDS011;18313;48.518;9.124;2024-02-14T01:03:31;13.95;;;7.60;;
31734;SDS011;18313;48.518;9.124;2024-02-14T01:05:59;15.70;;;7.55;;
31734;SDS011;18313;48.518;9.124;2024-02-14T01:08:26;15.07;;;8.23;;
31734;SDS011;18313;48.518;9.124;2024-02-14T01:10:54;12.63;;;7.60;;
31734;SDS011;18313;48.518;9.124;2024-02-14T01:13:21;17.00;;;8.25;;
31734;SDS011;18313;48.518;9.124;2024-02-14T01:15:49;12.90;;;7.35;;
31734;SDS011;18313;48.518;9.124;2024-02-14T01:18:16;14.43;;;7.57;;
31734;SDS011;18313;48.518;9.124;2024-02-14T01:20:43;13.65;;;7.68;;
31734;SDS011;18313;48.518;9.124;2024-02-14T01:23:14;15.60;;;7.90;;
31734;SDS011;18313;48.518;9.124;2024-02-14T01:25:41;13.57;;;7.82;;
31734;SDS011;18313;48.518;9.124;2024-02-14T01:28:09;14.15;;;8.27;;
31734;SDS011;18313;48.518;9.124;2024-02-14T01:30:36;14.07;;;7.80;;
31734;SDS011;18313;48.518;9.124;2024-02-14T01:33:03;13.90;;;7.68;;
31734;SDS011;18313;48.518;9.124;2024-02-14T01:35:31;16.00;;;8.30;;
31734;SDS011;18313;48.518;9.124;2024-02-14T01:37:58;16.63;;;7.63;;
31734;SDS011;18313;48.518;9.124;2024-02-14T01:40:26;14.68;;;7.78;;
31734;SDS011;18313;48.518;9.124;2024-02-14T01:42:53;14.35;;;7.57;;
31734;SDS011;18313;48.518;9.124;2024-02-14T01:45:20;13.15;;;7.38;;
31734;SDS011;18313;48.518;9.124;2024-02-14T01:47:48;14.25;;;7.15;;
31734;SDS011;18313;48.518;9.124;2024-02-14T01:50:17;13.25;;;7.38;;
31734;SDS011;18313;48.518;9.124;2024-02-14T01:52:45;13.50;;;7.45;;
31734;SDS011;18313;48.518;9.124;2024-02-14T01:55:15;12.32;;;7.20;;
31734;SDS011;18313;48.518;9.124;2024-02-14T01:57:43;12.57;;;7.60;;
31734;SDS011;18313;48.518;9.124;2024-02-14T02:00:11;11.82;;;6.90;;
31734;SDS011;18313;48.518;9.124;2024-02-14T02:02:44;13.35;;;7.28;;
31734;SDS011;18313;48.518;9.124;2024-02-14T02:05:13;13.55;;;7.70;;
31734;SDS011;18313;48.518;9.124;2024-02-14T02:07:43;13.73;;;8.15;;
31734;SDS011;18313;48.518;9.124;2024-02-14T02:10:14;14.23;;;7.35;;
31734;SDS011;18313;48.518;9.124;2024-02-14T02:12:42;11.35;;;6.20;;
31734;SDS011;18313;48.518;9.124;2024-02-14T02:15:10;10.82;;;6.93;;
31734;SDS011;18313;48.518;9.124;2024-02-14T02:17:39;12.93;;;6.57;;
31734;SDS011;18313;48.518;9.124;2024-02-14T02:20:07;14.43;;;6.55;;
31734;SDS011;18313;48.518;9.124;2024-02-14T02:22:35;11.60;;;6.40;;
31734;SDS011;18313;48.518;9.124;2024-02-14T02:25:03;12.15;;;6.53;;
31734;SDS011;18313;48.518;9.124;2024-02-14T02:27:33;13.63;;;6.72;;
31734;SDS011;18313;48.518;9.124;2024-02-14T02:30:07;10.77;;;6.90;;
31734;SDS011;18313;48.518;9.124;2024-02-14T02:32:41;13.10;;;6.70;;
31734;SDS011;18313;48.518;9.124;2024-02-14T02:35:09;11.10;;;5.93;;
31734;SDS011;18313;48.518;9.124;2024-02-14T02:37:36;11.63;;;5.82;;
31734;SDS011;18313;48.518;9.124;2024-02-14T02:40:04;9.57;;;5.45;;
31734;SDS011;18313;48.518;9.124;2024-02-14T02:42:32;12.77;;;5.63;;
31734;SDS011;18313;48.518;9.124;2024-02-14T02:44:59;13.80;;;5.50;;
31734;SDS011;18313;48.518;9.124;2024-02-14T02:47:28;12.95;;;6.45;;
31734;SDS011;18313;48.518;9.124;2024-02-14T02:49:56;11.52;;;5.80;;
31734;SDS011;18313;48.518;9.124;2024-02-14T02:52:26;11.77;;;6.25;;
31734;SDS011;18313;48.518;9.124;2024-02-14T02:54:54;12.57;;;6.60;;
31734;SDS011;18313;48.518;9.124;2024-02-14T02:57:21;12.55;;;6.13;;
31734;SDS011;18313;48.518;9.124;2024-02-14T02:59:48;10.30;;;5.60;;
31734;SDS011;18313;48.518;9.124;2024-02-14T03:02:16;11.02;;;5.35;;
31734;SDS011;18313;48.518;9.124;2024-02-14T03:04:43;10.77;;;5.88;;
31734;SDS011;18313;48.518;9.124;2024-02-14T03:07:21;11.55;;;5.93;;
31734;SDS011;18313;48.518;9.124;2024-02-14T03:09:50;12.90;;;6.20;;
31734;SDS011;18313;48.518;9.124;2024-02-14T03:12:18;11.43;;;6.53;;
31734;SDS011;18313;48.518;9.124;2024-02-14T03:14:47;11.52;;;6.32;;
31734;SDS011;18313;48.518;9.124;2024-02-14T03:17:16;11.55;;;7.30;;
31734;SDS011;18313;48.518;9.124;2024-02-14T03:19:43;11.82;;;6.45;;
31734;SDS011;18313;48.518;9.124;2024-02-14T03:22:10;11.38;;;6.18;;
31734;SDS011;18313;48.518;9.124;2024-02-14T03:24:38;14.13;;;6.47;;
31734;SDS011;18313;48.518;9.124;2024-02-14T03:27:05;11.63;;;6.30;;
31734;SDS011;18313;48.518;9.124;2024-02-14T03:29:32;12.68;;;7.03;;
31734;SDS011;18313;48.518;9.124;2024-02-14T03:32:02;12.02;;;6.53;;
31734;SDS011;18313;48.518;9.124;2024-02-14T03:34:31;14.18;;;6.78;;
31734;SDS011;18313;48.518;9.124;2024-02-14T03:37:02;11.60;;;6.25;;
31734;SDS011;18313;48.518;9.124;2024-02-14T03:39:30;12.25;;;6.45;;
31734;SDS011;18313;48.518;9.124;2024-02-14T03:41:58;11.93;;;5.70;;
31734;SDS011;18313;48.518;9.124;2024-02-14T03:44:29;10.25;;;6.00;;
31734;SDS011;18313;48.518;9.124;2024-02-14T03:46:58;10.70;;;6.13;;
31734;SDS011;18313;48.518;9.124;2024-02-14T03:49:26;12.50;;;6.68;;
31734;SDS011;18313;48.518;9.124;2024-02-14T03:51:54;11.10;;;6.53;;
31734;SDS011;18313;48.518;9.124;2024-02-14T03:54:22;13.63;;;6.40;;
31734;SDS011;18313;48.518;9.124;2024-02-14T03:56:50;16.30;;;7.22;;
31734;SDS011;18313;48.518;9.124;2024-02-14T03:59:19;14.15;;;6.00;;
31734;SDS011;18313;48.518;9.124;2024-02-14T04:01:51;15.32;;;6.70;;
31734;SDS011;18313;48.518;9.124;2024-02-14T04:04:19;10.02;;;6.07;;
31734;SDS011;18313;48.518;9.124;2024-02-14T04:06:47;11.77;;;6.43;;
31734;SDS011;18313;48.518;9.124;2024-02-14T04:09:14;11.55;;;6.45;;
31734;SDS011;18313;48.518;9.124;2024-02-14T04:11:41;11.98;;;6.32;;
31734;SDS011;18313;48.518;9.124;2024-02-14T04:14:09;12.20;;;7.05;;
31734;SDS011;18313;48.518;9.124;2024-02-14T04:16:36;12.82;;;5.82;;
31734;SDS011;18313;48.518;9.124;2024-02-14T04:19:03;14.57;;;6.05;;
31734;SDS011;18313;48.518;9.124;2024-02-14T04:21:31;11.27;;;6.07;;
31734;SDS011;18313;48.518;9.124;2024-02-14T04:24:00;9.98;;;6.00;;
31734;SDS011;18313;48.518;9.124;2024-02-14T04:26:27;10.73;;;6.25;;
31734;SDS011;18313;48.518;9.124;2024-02-14T04:28:55;13.63;;;6.05;;
31734;SDS011;18313;48.518;9.124;2024-02-14T04:31:23;10.32;;;6.07;;
31734;SDS011;18313;48.518;9.124;2024-02-14T04:33:51;11.25;;;5.32;;
31734;SDS011;18313;48.518;9.124;2024-02-14T04:36:20;11.38;;;6.18;;
31734;SDS011;18313;48.518;9.124;2024-02-14T04:38:47;9.48;;;5.68;;
31734;SDS011;18313;48.518;9.124;2024-02-14T04:41:15;11.48;;;6.15;;
31734;SDS011;18313;48.518;9.124;2024-02-14T04:43:42;11.15;;;5.85;;
31734;SDS011;18313;48.518;9.124;2024-02-14T04:46:10;10.15;;;5.65;;
31734;SDS011;18313;48.518;9.124;2024-02-14T04:48:37;10.30;;;5.85;;
31734;SDS011;18313;48.518;9.124;2024-02-14T04:51:05;10.50;;;5.80;;
31734;SDS011;18313;48.518;9.124;2024-02-14T04:53:32;8.82;;;6.05;;
31734;SDS011;18313;48.518;9.124;2024-02-14T04:56:00;11.00;;;6.20;;
31734;SDS011;18313;48.518;9.124;2024-02-14T04:58:27;12.95;;;6.60;;
31734;SDS011;18313;48.518;9.124;2024-02-14T05:00:55;11.95;;;6.03;;
31734;SDS011;18313;48.518;9.124;2024-02-14T05:03:24;10.10;;;5.68;;
31734;SDS011;18313;48.518;9.124;2024-02-14T05:05:52;12.40;;;6.00;;
31734;SDS011;18313;48.518;9.124;2024-02-14T05:08:20;9.60;;;5.65;;
31734;SDS011;18313;48.518;9.124;2024-02-14T05:10:47;11.95;;;5.65;;
31734;SDS011;18313;48.518;9.124;2024-02-14T05:13:15;11.20;;;5.97;;
31734;SDS011;18313;48.518;9.124;2024-02-14T05:15:42;10.27;;;5.93;;
31734;SDS011;18313;48.518;9.124;2024-02-14T05:18:10;9.77;;;5.10;;
31734;SDS011;18313;48.518;9.124;2024-02-14T05:20:38;10.57;;;4.88;;
31734;SDS011;18313;48.518;9.124;2024-02-14T05:23:06;9.45;;;5.03;;
31734;SDS011;18313;48.518;9.124;2024-02-14T05:25:33;11.98;;;4.95;;
31734;SDS011;18313;48.518;9.124;2024-02-14T05:28:00;9.88;;;5.15;;
31734;SDS011;18313;48.518;9.124;2024-02-14T05:30:28;10.77;;;5.53;;
31734;SDS011;18313;48.518;9.124;2024-02-14T05:32:55;10.63;;;5.60;;
31734;SDS011;18313;48.518;9.124;2024-02-14T05:35:22;9.35;;;5.38;;
31734;SDS011;18313;48.518;9.124;2024-02-14T05:37:50;10.35;;;5.55;;
31734;SDS011;18313;48.518;9.124;2024-02-14T05:40:18;15.02;;;5.50;;
31734;SDS011;18313;48.518;9.124;2024-02-14T05:42:45;9.68;;;5.70;;
31734;SDS011;18313;48.518;9.124;2024-02-14T05:45:13;13.25;;;5.80;;
31734;SDS011;18313;48.518;9.124;2024-02-14T05:47:40;9.45;;;5.15;;
31734;SDS011;18313;48.518;9.124;2024-02-14T05:50:09;12.75;;;5.55;;
31734;SDS011;18313;48.518;9.124;2024-02-14T05:52:38;9.07;;;4.72;;
31734;SDS011;18313;48.518;9.124;2024-02-14T05:55:05;9.68;;;5.22;;
31734;SDS011;18313;48.518;9.124;2024-02-14T05:57:34;10.32;;;5.40;;
31734;SDS011;18313;48.518;9.124;2024-02-14T06:00:02;14.25;;;7.47;;
31734;SDS011;18313;48.518;9.124;2024-02-14T06:02:30;18.83;;;9.20;;
31734;SDS011;18313;48.518;9.124;2024-02-14T06:04:57;15.00;;;8.23;;
31734;SDS011;18313;48.518;9.124;2024-02-14T06:07:25;13.15;;;7.45;;
31734;SDS011;18313;48.518;9.124;2024-02-14T06:09:52;14.95;;;6.50;;
31734;SDS011;18313;48.518;9.124;2024-02-14T06:12:20;11.65;;;5.35;;
31734;SDS011;18313;48.518;9.124;2024-02-14T06:14:48;9.75;;;4.45;;
31734;SDS011;18313;48.518;9.124;2024-02-14T06:17:16;11.23;;;4.35;;
31734;SDS011;18313;48.518;9.124;2024-02-14T06:19:44;5.95;;;3.90;;
31734;SDS011;18313;48.518;9.124;2024-02-14T06:22:12;10.05;;;4.40;;
31734;SDS011;18313;48.518;9.124;2024-02-14T06:24:39;10.00;;;4.65;;
31734;SDS011;18313;48.518;9.124;2024-02-14T06:27:06;8.77;;;4.40;;
31734;SDS011;18313;48.518;9.124;2024-02-14T06:29:34;10.48;;;5.30;;
31734;SDS011;18313;48.518;9.124;2024-02-14T06:32:01;8.70;;;5.28;;
31734;SDS011;18313;48.518;9.124;2024-02-14T06:34:29;12.13;;;6.03;;
31734;SDS011;18313;48.518;9.124;2024-02-14T06:36:57;9.63;;;5.55;;
31734;SDS011;18313;48.518;9.124;2024-02-14T06:39:27;10.65;;;5.25;;
31734;SDS011;18313;48.518;9.124;2024-02-14T06:41:54;7.13;;;4.55;;
31734;SDS011;18313;48.518;9.124;2024-02-14T06:44:21;10.32;;;4.22;;
31734;SDS011;18313;48.518;9.124;2024-02-14T06:46:49;10.32;;;4.30;;
31734;SDS011;18313;48.518;9.124;2024-02-14T06:49:18;8.75;;;4.40;;
31734;SDS011;18313;48.518;9.124;2024-02-14T06:51:46;8.25;;;3.40;;
31734;SDS011;18313;48.518;9.124;2024-02-14T06:54:13;8.52;;;3.85;;
31734;SDS011;18313;48.518;9.124;2024-02-14T06:56:41;7.65;;;3.38;;
31734;SDS011;18313;48.518;9.124;2024-02-14T06:59:09;8.82;;;3.63;;
31734;SDS011;18313;48.518;9.124;2024-02-14T07:01:36;7.95;;;3.40;;
31734;SDS011;18313;48.518;9.124;2024-02-14T07:04:04;7.88;;;4.13;;
31734;SDS011;18313;48.518;9.124;2024-02-14T07:06:32;8.55;;;2.90;;
31734;SDS011;18313;48.518;9.124;2024-02-14T07:09:00;7.93;;;3.15;;
31734;SDS011;18313;48.518;9.124;2024-02-14T07:11:27;8.13;;;3.08;;
31734;SDS011;18313;48.518;9.124;2024-02-14T07:13:55;7.28;;;2.80;;
31734;SDS011;18313;48.518;9.124;2024-02-14T07:16:23;7.80;;;2.90;;
31734;SDS011;18313;48.518;9.124;2024-02-14T07:18:50;6.20;;;2.58;;
31734;SDS011;18313;48.518;9.124;2024-02-14T07:21:18;6.57;;;2.80;;
31734;SDS011;18313;48.518;9.124;2024-02-14T07:23:45;6.20;;;3.00;;
31734;SDS011;18313;48.518;9.124;2024-02-14T07:26:13;8.75;;;3.00;;
31734;SDS011;18313;48.518;9.124;2024-02-14T07:28:41;6.60;;;3.13;;
31734;SDS011;18313;48.518;9.124;2024-02-14T07:31:08;5.53;;;2.90;;
31734;SDS011;18313;48.518;9.124;2024-02-14T07:33:36;7.07;;;2.83;;
31734;SDS011;18313;48.518;9.124;2024-02-14T07:36:03;5.30;;;2.65;;
31734;SDS011;18313;48.518;9.124;2024-02-14T07:38:31;5.97;;;2.70;;
31734;SDS011;18313;48.518;9.124;2024-02-14T07:40:58;7.72;;;3.30;;
31734;SDS011;18313;48.518;9.124;2024-02-14T07:43:26;6.28;;;3.20;;
31734;SDS011;18313;48.518;9.124;2024-02-14T07:45:53;4.57;;;2.38;;
31734;SDS011;18313;48.518;9.124;2024-02-14T07:48:20;6.32;;;2.50;;
31734;SDS011;18313;48.518;9.124;2024-02-14T07:50:49;8.57;;;2.63;;
31734;SDS011;18313;48.518;9.124;2024-02-14T07:53:16;6.90;;;2.95;;
31734;SDS011;18313;48.518;9.124;2024-02-14T07:55:43;6.82;;;3.17;;
31734;SDS011;18313;48.518;9.124;2024-02-14T07:58:11;6.93;;;3.58;;
31734;SDS011;18313;48.518;9.124;2024-02-14T08:00:39;10.10;;;3.90;;
31734;SDS011;18313;48.518;9.124;2024-02-14T08:03:06;10.70;;;3.80;;
31734;SDS011;18313;48.518;9.124;2024-02-14T08:05:35;8.93;;;4.60;;
31734;SDS011;18313;48.518;9.124;2024-02-14T08:08:02;9.10;;;4.15;;
31734;SDS011;18313;48.518;9.124;2024-02-14T08:10:29;8.90;;;4.20;;
31734;SDS011;18313;48.518;9.124;2024-02-14T08:12:57;12.23;;;3.63;;
31734;SDS011;18313;48.518;9.124;2024-02-14T08:15:25;6.05;;;3.15;;
31734;SDS011;18313;48.518;9.124;2024-02-14T08:17:52;6.88;;;3.28;;
31734;SDS011;18313;48.518;9.124;2024-02-14T08:22:55;8.35;;;2.97;;
31734;SDS011;18313;48.518;9.124;2024-02-14T08:25:23;6.88;;;2.80;;
31734;SDS011;18313;48.518;9.124;2024-02-14T08:27:50;7.15;;;3.22;;
31734;SDS011;18313;48.518;9.124;2024-02-14T08:30:18;7.32;;;3.08;;
31734;SDS011;18313;48.518;9.124;2024-02-14T08:32:46;5.85;;;3.08;;
31734;SDS011;18313;48.518;9.124;2024-02-14T08:35:14;6.63;;;3.20;;
31734;SDS011;18313;48.518;9.124;2024-02-14T08:37:42;7.88;;;3.65;;
31734;SDS011;18313;48.518;9.124;2024-02-14T08:40:09;8.48;;;3.28;;
31734;SDS011;18313;48.518;9.124;2024-02-14T08:42:38;7.43;;;2.90;;
31734;SDS011;18313;48.518;9.124;2024-02-14T08:45:06;7.78;;;2.72;;
31734;SDS011;18313;48.518;9.124;2024-02-14T08:47:34;6.43;;;2.70;;
31734;SDS011;18313;48.518;9.124;2024-02-14T08:50:01;9.68;;;2.70;;
31734;SDS011;18313;48.518;9.124;2024-02-14T08:52:30;6.15;;;2.10;;
31734;SDS011;18313;48.518;9.124;2024-02-14T08:54:57;6.13;;;2.22;;
31734;SDS011;18313;48.518;9.124;2024-02-14T08:57:25;4.75;;;1.90;;
31734;SDS011;18313;48.518;9.124;2024-02-14T08:59:52;4.70;;;2.05;;
31734;SDS011;18313;48.518;9.124;2024-02-14T09:02:20;5.63;;;2.00;;
31734;SDS011;18313;48.518;9.124;2024-02-14T09:04:49;5.47;;;2.70;;
31734;SDS011;18313;48.518;9.124;2024-02-14T09:07:17;12.50;;;4.60;;
31734;SDS011;18313;48.518;9.124;2024-02-14T09:09:45;10.32;;;5.35;;
31734;SDS011;18313;48.518;9.124;2024-02-14T09:12:12;6.43;;;3.60;;
31734;SDS011;18313;48.518;9.124;2024-02-14T09:14:40;4.97;;;2.42;;
31734;SDS011;18313;48.518;9.124;2024-02-14T09:17:08;6.80;;;2.60;;
31734;SDS011;18313;48.518;9.124;2024-02-14T09:19:36;7.40;;;2.40;;
31734;SDS011;18313;48.518;9.124;2024-02-14T09:22:04;7.97;;;2.30;;
31734;SDS011;18313;48.518;9.124;2024-02-14T09:24:33;4.30;;;2.50;;
31734;SDS011;18313;48.518;9.124;2024-02-14T09:27:00;5.88;;;2.30;;
31734;SDS011;18313;48.518;9.124;2024-02-14T09:29:29;7.28;;;2.28;;
31734;SDS011;18313;48.518;9.124;2024-02-14T09:31:56;7.07;;;2.75;;
31734;SDS011;18313;48.518;9.124;2024-02-14T09:34:23;4.78;;;2.17;;
31734;SDS011;18313;48.518;9.124;2024-02-14T09:36:52;4.57;;;2.10;;
31734;SDS011;18313;48.518;9.124;2024-02-14T09:39:19;6.95;;;2.53;;
31734;SDS011;18313;48.518;9.124;2024-02-14T09:41:50;6.05;;;2.67;;
31734;SDS011;18313;48.518;9.124;2024-02-14T09:44:22;5.65;;;2.25;;
31734;SDS011;18313;48.518;9.124;2024-02-14T09:46:50;6.95;;;2.70;;
31734;SDS011;18313;48.518;9.124;2024-02-14T09:49:18;6.40;;;2.60;;
31734;SDS011;18313;48.518;9.124;2024-02-14T09:51:46;6.85;;;2.50;;
31734;SDS011;18313;48.518;9.124;2024-02-14T09:54:18;5.13;;;2.50;;
31734;SDS011;18313;48.518;9.124;2024-02-14T09:56:49;6.97;;;3.10;;
31734;SDS011;18313;48.518;9.124;2024-02-14T09:59:20;8.85;;;2.90;;
31734;SDS011;18313;48.518;9.124;2024-02-14T10:01:48;7.57;;;3.10;;
31734;SDS011;18313;48.518;9.124;2024-02-14T10:04:18;6.57;;;2.28;;
31734;SDS011;18313;48.518;9.124;2024-02-14T10:06:48;6.68;;;2.40;;
31734;SDS011;18313;48.518;9.124;2024-02-14T10:09:20;8.02;;;2.90;;
31734;SDS011;18313;48.518;9.124;2024-02-14T10:11:48;4.43;;;2.20;;
31734;SDS011;18313;48.518;9.124;2024-02-14T10:14:16;5.30;;;2.10;;
31734;SDS011;18313;48.518;9.124;2024-02-14T10:16:43;6.03;;;2.28;;
31734;SDS011;18313;48.518;9.124;2024-02-14T10:19:15;3.53;;;1.83;;
31734;SDS011;18313;48.518;9.124;2024-02-14T10:21:58;6.93;;;2.00;;
31734;SDS011;18313;48.518;9.124;2024-02-14T10:24:27;4.72;;;2.28;;
31734;SDS011;18313;48.518;9.124;2024-02-14T10:26:55;5.22;;;2.17;;
31734;SDS011;18313;48.518;9.124;2024-02-14T10:29:25;5.00;;;2.20;;
31734;SDS011;18313;48.518;9.124;2024-02-14T10:31:52;6.00;;;1.75;;
31734;SDS011;18313;48.518;9.124;2024-02-14T10:34:23;6.75;;;2.58;;
31734;SDS011;18313;48.518;9.124;2024-02-14T10:36:56;6.30;;;2.20;;
31734;SDS011;18313;48.518;9.124;2024-02-14T10:39:25;5.65;;;1.98;;
31734;SDS011;18313;48.518;9.124;2024-02-14T10:41:53;5.82;;;1.92;;
31734;SDS011;18313;48.518;9.124;2024-02-14T10:44:25;6.03;;;1.90;;
31734;SDS011;18313;48.518;9.124;2024-02-14T10:46:52;5.85;;;2.05;;
31734;SDS011;18313;48.518;9.124;2024-02-14T10:49:24;4.90;;;1.90;;
31734;SDS011;18313;48.518;9.124;2024-02-14T10:51:56;4.25;;;2.00;;
31734;SDS011;18313;48.518;9.124;2024-02-14T10:56:58;4.85;;;1.67;;
31734;SDS011;18313;48.518;9.124;2024-02-14T10:59:28;4.00;;;1.80;;
31734;SDS011;18313;48.518;9.124;2024-02-14T11:01:58;5.65;;;1.98;;
31734;SDS011;18313;48.518;9.124;2024-02-14T11:04:26;3.78;;;1.90;;
31734;SDS011;18313;48.518;9.124;2024-02-14T11:06:53;3.15;;;1.20;;
31734;SDS011;18313;48.518;9.124;2024-02-14T11:09:32;1.70;;;1.08;;
31734;SDS011;18313;48.518;9.124;2024-02-14T11:12:08;2.95;;;1.05;;
31734;SDS011;18313;48.518;9.124;2024-02-14T11:14:41;2.67;;;1.10;;
31734;SDS011;18313;48.518;9.124;2024-02-14T11:17:12;3.35;;;0.90;;
31734;SDS011;18313;48.518;9.124;2024-02-14T11:19:39;1.70;;;0.80;;
31734;SDS011;18313;48.518;9.124;2024-02-14T11:22:11;1.52;;;0.73;;
31734;SDS011;18313;48.518;9.124;2024-02-14T11:24:39;2.45;;;0.93;;
31734;SDS011;18313;48.518;9.124;2024-02-14T11:27:11;1.40;;;0.60;;
31734;SDS011;18313;48.518;9.124;2024-02-14T11:29:58;2.67;;;1.00;;
31734;SDS011;18313;48.518;9.124;2024-02-14T11:32:27;2.30;;;0.80;;
31734;SDS011;18313;48.518;9.124;2024-02-14T11:34:55;2.22;;;0.85;;
31734;SDS011;18313;48.518;9.124;2024-02-14T11:37:27;3.58;;;0.82;;
31734;SDS011;18313;48.518;9.124;2024-02-14T11:39:56;4.43;;;1.15;;
31734;SDS011;18313;48.518;9.124;2024-02-14T11:42:25;2.08;;;0.90;;
31734;SDS011;18313;48.518;9.124;2024-02-14T11:44:53;2.70;;;1.10;;
31734;SDS011;18313;48.518;9.124;2024-02-14T11:47:22;2.90;;;0.95;;
31734;SDS011;18313;48.518;9.124;2024-02-14T11:49:50;3.72;;;0.88;;
31734;SDS011;18313;48.518;9.124;2024-02-14T11:52:17;4.72;;;1.00;;
31734;SDS011;18313;48.518;9.124;2024-02-14T11:54:46;2.92;;;0.80;;
31734;SDS011;18313;48.518;9.124;2024-02-14T11:57:18;2.15;;;0.95;;
31734;SDS011;18313;48.518;9.124;2024-02-14T11:59:48;2.08;;;0.90;;
31734;SDS011;18313;48.518;9.124;2024-02-14T12:02:19;2.65;;;0.98;;
31734;SDS011;18313;48.518;9.124;2024-02-14T12:04:47;1.70;;;0.80;;
31734;SDS011;18313;48.518;9.124;2024-02-14T12:07:17;2.25;;;0.70;;
31734;SDS011;18313;48.518;9.124;2024-02-14T12:09:45;1.63;;;0.68;;
31734;SDS011;18313;48.518;9.124;2024-02-14T12:12:12;1.45;;;0.70;;
31734;SDS011;18313;48.518;9.124;2024-02-14T12:14:39;3.15;;;0.70;;
31734;SDS011;18313;48.518;9.124;2024-02-14T12:17:07;1.27;;;0.70;;
31734;SDS011;18313;48.518;9.124;2024-02-14T12:19:34;1.05;;;0.52;;
31734;SDS011;18313;48.518;9.124;2024-02-14T12:22:01;2.45;;;0.70;;
31734;SDS011;18313;48.518;9.124;2024-02-14T12:24:29;1.58;;;0.60;;
31734;SDS011;18313;48.518;9.124;2024-02-14T12:26:56;2.15;;;0.60;;
31734;SDS011;18313;48.518;9.124;2024-02-14T12:29:24;2.75;;;0.50;;
31734;SDS011;18313;48.518;9.124;2024-02-14T12:32:02;3.10;;;0.60;;
31734;SDS011;18313;48.518;9.124;2024-02-14T12:34:31;2.78;;;0.90;;
31734;SDS011;18313;48.518;9.124;2024-02-14T12:36:59;2.83;;;0.70;;
31734;SDS011;18313;48.518;9.124;2024-02-14T12:39:26;3.30;;;0.73;;
31734;SDS011;18313;48.518;9.124;2024-02-14T12:41:54;2.13;;;0.50;;
31734;SDS011;18313;48.518;9.124;2024-02-14T12:44:21;1.38;;;0.60;;
31734;SDS011;18313;48.518;9.124;2024-02-14T12:46:48;5.30;;;0.98;;
31734;SDS011;18313;48.518;9.124;2024-02-14T12:49:16;1.08;;;0.50;;
31734;SDS011;18313;48.518;9.124;2024-02-14T12:51:44;0.98;;;0.60;;
31734;SDS011;18313;48.518;9.124;2024-02-14T12:54:11;5.03;;;2.05;;
31734;SDS011;18313;48.518;9.124;2024-02-14T12:56:41;1.98;;;0.52;;
31734;SDS011;18313;48.518;9.124;2024-02-14T12:59:08;0.63;;;0.50;;
31734;SDS011;18313;48.518;9.124;2024-02-14T13:01:41;5.60;;;1.00;;
31734;SDS011;18313;48.518;9.124;2024-02-14T13:04:10;2.70;;;1.10;;
31734;SDS011;18313;48.518;9.124;2024-02-14T13:06:37;3.20;;;1.20;;
31734;SDS011;18313;48.518;9.124;2024-02-14T13:09:04;0.77;;;0.40;;
31734;SDS011;18313;48.518;9.124;2024-02-14T13:11:32;0.82;;;0.40;;
31734;SDS011;18313;48.518;9.124;2024-02-14T13:13:59;0.85;;;0.50;;
31734;SDS011;18313;48.518;9.124;2024-02-14T13:16:26;1.33;;;0.50;;
31734;SDS011;18313;48.518;9.124;2024-02-14T13:18:54;1.75;;;0.80;;
31734;SDS011;18313;48.518;9.124;2024-02-14T13:21:21;2.15;;;0.68;;
31734;SDS011;18313;48.518;9.124;2024-02-14T13:23:50;0.90;;;0.40;;
31734;SDS011;18313;48.518;9.124;2024-02-14T13:26:17;1.40;;;0.50;;
31734;SDS011;18313;48.518;9.124;2024-02-14T13:28:44;1.40;;;0.75;;
31734;SDS011;18313;48.518;9.124;2024-02-14T13:31:12;2.35;;;0.70;;
31734;SDS011;18313;48.518;9.124;2024-02-14T13:33:39;2.35;;;0.77;;
31734;SDS011;18313;48.518;9.124;2024-02-14T13:36:07;0.90;;;0.50;;
31734;SDS011;18313;48.518;9.124;2024-02-14T13:38:34;3.42;;;0.80;;
31734;SDS011;18313;48.518;9.124;2024-02-14T13:41:01;3.85;;;1.52;;
31734;SDS011;18313;48.518;9.124;2024-02-14T13:43:29;1.80;;;0.70;;
31734;SDS011;18313;48.518;9.124;2024-02-14T13:45:56;0.35;;;0.30;;
31734;SDS011;18313;48.518;9.124;2024-02-14T13:48:23;0.85;;;0.40;;
31734;SDS011;18313;48.518;9.124;2024-02-14T13:50:51;3.38;;;0.50;;
31734;SDS011;18313;48.518;9.124;2024-02-14T13:53:18;2.38;;;0.68;;
31734;SDS011;18313;48.518;9.124;2024-02-14T13:55:47;1.13;;;0.50;;
31734;SDS011;18313;48.518;9.124;2024-02-14T13:58:14;2.08;;;0.50;;
31734;SDS011;18313;48.518;9.124;2024-02-14T14:00:43;2.65;;;0.60;;
31734;SDS011;18313;48.518;9.124;2024-02-14T14:03:11;0.60;;;0.50;;
31734;SDS011;18313;48.518;9.124;2024-02-14T14:05:38;0.85;;;0.50;;
31734;SDS011;18313;48.518;9.124;2024-02-14T14:08:06;3.75;;;1.00;;
31734;SDS011;18313;48.518;9.124;2024-02-14T14:10:33;4.68;;;1.17;;
31734;SDS011;18313;48.518;9.124;2024-02-14T14:13:01;0.75;;;0.47;;
31734;SDS011;18313;48.518;9.124;2024-02-14T14:15:28;0.52;;;0.47;;
31734;SDS011;18313;48.518;9.124;2024-02-14T14:17:55;1.48;;;0.57;;
31734;SDS011;18313;48.518;9.124;2024-02-14T14:20:24;0.90;;;0.60;;
31734;SDS011;18313;48.518;9.124;2024-02-14T14:22:51;2.28;;;0.60;;
31734;SDS011;18313;48.518;9.124;2024-02-14T14:25:18;1.35;;;0.60;;
31734;SDS011;18313;48.518;9.124;2024-02-14T14:27:46;2.45;;;0.98;;
31734;SDS011;18313;48.518;9.124;2024-02-14T14:30:13;1.75;;;0.40;;
31734;SDS011;18313;48.518;9.124;2024-02-14T14:32:40;0.73;;;0.55;;
31734;SDS011;18313;48.518;9.124;2024-02-14T14:35:07;1.98;;;0.80;;
31734;SDS011;18313;48.518;9.124;2024-02-14T14:37:38;2.00;;;1.00;;
31734;SDS011;18313;48.518;9.124;2024-02-14T14:40:07;0.90;;;0.55;;
31734;SDS011;18313;48.518;9.124;2024-02-14T14:42:36;3.53;;;0.80;;
31734;SDS011;18313;48.518;9.124;2024-02-14T14:45:04;2.90;;;0.80;;
31734;SDS011;18313;48.518;9.124;2024-02-14T14:47:31;2.25;;;0.93;;
31734;SDS011;18313;48.518;9.124;2024-02-14T14:49:59;1.85;;;0.70;;
31734;SDS011;18313;48.518;9.124;2024-02-14T14:52:26;1.35;;;0.70;;
31734;SDS011;18313;48.518;9.124;2024-02-14T14:54:54;2.90;;;1.10;;